Natoma, Kansas
Current Conditions -  °F | °C
As of 4:53 PM on Monday 22 Dec 2014 (Local Time) from KRSL Reporting Station
Broken Clouds Broken Clouds  
Wind Chill: 50°   Ceiling: 11000
Heat Index: 50°   Visibility: 10mi
Dew Point: 27°   Wind: 16mph
Humidity: 41%   Direction: 320°NW
Pressure: 29.54"   Gusts: NA
Location:  39.19°N, 99.03°W
Report Text: KRSL 222253Z AUTO 32014KT 10SM BKN110 10/M03 A2954 RMK AO2 SLP007 T01001028
Loading
Personal Weather Stations






























Interactive Weather Map New forecast layout! Learn more

10-Day Weather Forecast

Advertisements
Track Severe Weather on mobile